sensor_id;sensor_type;location;lat;lon;timestamp;pressure;altitude;pressure_sealevel;temperature;humidity
69980;BME280;57318;56.232;43.944;2022-07-15T00:00:40;97522.59;;;15.90;87.73
69980;BME280;57318;56.232;43.944;2022-07-15T00:03:06;97510.00;;;15.90;87.54
69980;BME280;57318;56.232;43.944;2022-07-15T00:05:32;97514.56;;;15.90;87.58
69980;BME280;57318;56.232;43.944;2022-07-15T00:07:57;97521.97;;;15.94;87.84
69980;BME280;57318;56.232;43.944;2022-07-15T00:10:27;97512.09;;;15.95;87.66
69980;BME280;57318;56.232;43.944;2022-07-15T00:12:53;97514.75;;;15.95;87.69
69980;BME280;57318;56.232;43.944;2022-07-15T00:15:22;97511.06;;;15.96;87.78
69980;BME280;57318;56.232;43.944;2022-07-15T00:17:48;97510.00;;;15.97;87.80
69980;BME280;57318;56.232;43.944;2022-07-15T00:20:14;97506.94;;;16.00;87.69
69980;BME280;57318;56.232;43.944;2022-07-15T00:22:41;97499.75;;;16.00;87.83
69980;BME280;57318;56.232;43.944;2022-07-15T00:25:08;97498.69;;;16.01;87.83
69980;BME280;57318;56.232;43.944;2022-07-15T00:27:36;97503.22;;;16.01;87.87
69980;BME280;57318;56.232;43.944;2022-07-15T00:30:03;97496.63;;;15.97;87.62
69980;BME280;57318;56.232;43.944;2022-07-15T00:32:29;97504.03;;;15.95;87.35
69980;BME280;57318;56.232;43.944;2022-07-15T00:34:55;97494.75;;;15.91;87.12
69980;BME280;57318;56.232;43.944;2022-07-15T00:37:21;97505.69;;;15.89;87.02
69980;BME280;57318;56.232;43.944;2022-07-15T00:39:47;97503.41;;;15.86;86.92
69980;BME280;57318;56.232;43.944;2022-07-15T00:42:13;97492.91;;;15.84;86.82
69980;BME280;57318;56.232;43.944;2022-07-15T00:45:01;97490.88;;;15.80;86.82
69980;BME280;57318;56.232;43.944;2022-07-15T00:47:29;97496.63;;;15.77;86.50
69980;BME280;57318;56.232;43.944;2022-07-15T00:49:55;97483.41;;;15.75;86.51
69980;BME280;57318;56.232;43.944;2022-07-15T00:52:21;97490.81;;;15.73;86.60
69980;BME280;57318;56.232;43.944;2022-07-15T00:54:49;97488.53;;;15.70;86.40
69980;BME280;57318;56.232;43.944;2022-07-15T00:57:18;97486.91;;;15.69;86.66
69980;BME280;57318;56.232;43.944;2022-07-15T00:59:46;97476.19;;;15.69;86.44
69980;BME280;57318;56.232;43.944;2022-07-15T01:02:14;97484.84;;;15.71;86.57
69980;BME280;57318;56.232;43.944;2022-07-15T01:04:39;97481.53;;;15.69;86.50
69980;BME280;57318;56.232;43.944;2022-07-15T01:07:05;97478.88;;;15.69;86.43
69980;BME280;57318;56.232;43.944;2022-07-15T01:09:32;97476.19;;;15.69;85.87
69980;BME280;57318;56.232;43.944;2022-07-15T01:11:57;97474.31;;;15.69;85.98
69980;BME280;57318;56.232;43.944;2022-07-15T01:14:23;97471.84;;;15.68;85.37
69980;BME280;57318;56.232;43.944;2022-07-15T01:16:50;97469.19;;;15.68;85.43
69980;BME280;57318;56.232;43.944;2022-07-15T01:19:15;97469.19;;;15.68;85.65
69980;BME280;57318;56.232;43.944;2022-07-15T01:21:41;97465.69;;;15.67;85.22
69980;BME280;57318;56.232;43.944;2022-07-15T01:24:07;97462.81;;;15.69;85.21
69980;BME280;57318;56.232;43.944;2022-07-15T01:26:32;97462.81;;;15.69;84.96
69980;BME280;57318;56.232;43.944;2022-07-15T01:28:58;97457.44;;;15.69;85.14
69980;BME280;57318;56.232;43.944;2022-07-15T01:31:24;97455.38;;;15.71;85.40
69980;BME280;57318;56.232;43.944;2022-07-15T01:33:49;97457.66;;;15.74;85.24
69980;BME280;57318;56.232;43.944;2022-07-15T01:36:15;97457.66;;;15.74;85.17
69980;BME280;57318;56.232;43.944;2022-07-15T01:38:41;97465.69;;;15.74;85.33
69980;BME280;57318;56.232;43.944;2022-07-15T01:41:06;97447.97;;;15.73;85.14
69980;BME280;57318;56.232;43.944;2022-07-15T01:43:32;97446.94;;;15.74;85.32
69980;BME280;57318;56.232;43.944;2022-07-15T01:45:57;97442.41;;;15.75;85.39
69980;BME280;57318;56.232;43.944;2022-07-15T01:48:23;97438.91;;;15.74;85.58
69980;BME280;57318;56.232;43.944;2022-07-15T01:51:07;97433.56;;;15.74;85.66
69980;BME280;57318;56.232;43.944;2022-07-15T01:53:33;97424.50;;;15.75;85.90
69980;BME280;57318;56.232;43.944;2022-07-15T01:55:58;97427.81;;;15.77;86.13
69980;BME280;57318;56.232;43.944;2022-07-15T01:58:24;97414.44;;;15.77;85.84
69980;BME280;57318;56.232;43.944;2022-07-15T02:00:50;97417.09;;;15.77;85.94
69980;BME280;57318;56.232;43.944;2022-07-15T02:03:16;97408.06;;;15.78;85.99
69980;BME280;57318;56.232;43.944;2022-07-15T02:05:42;97411.09;;;15.75;86.18
69980;BME280;57318;56.232;43.944;2022-07-15T02:08:08;97407.78;;;15.73;86.18
69980;BME280;57318;56.232;43.944;2022-07-15T02:10:34;97402.44;;;15.73;86.17
69980;BME280;57318;56.232;43.944;2022-07-15T02:13:11;97407.78;;;15.73;86.33
69980;BME280;57318;56.232;43.944;2022-07-15T02:15:57;97402.44;;;15.73;86.49
69980;BME280;57318;56.232;43.944;2022-07-15T02:18:23;97398.53;;;15.69;86.67
69980;BME280;57318;56.232;43.944;2022-07-15T02:20:48;97407.19;;;15.71;86.78
69980;BME280;57318;56.232;43.944;2022-07-15T02:23:14;97398.94;;;15.73;86.83
69980;BME280;57318;56.232;43.944;2022-07-15T02:25:40;97398.13;;;15.72;86.88
69980;BME280;57318;56.232;43.944;2022-07-15T02:31:46;97393.19;;;15.76;86.75
69980;BME280;57318;56.232;43.944;2022-07-15T02:34:12;97387.66;;;15.77;87.00
69980;BME280;57318;56.232;43.944;2022-07-15T02:36:38;97388.63;;;15.76;87.01
69980;BME280;57318;56.232;43.944;2022-07-15T02:39:04;97381.28;;;15.78;86.91
69980;BME280;57318;56.232;43.944;2022-07-15T02:41:29;97390.34;;;15.77;87.19
69980;BME280;57318;56.232;43.944;2022-07-15T02:43:55;97376.13;;;15.77;87.08
69980;BME280;57318;56.232;43.944;2022-07-15T02:46:21;97382.09;;;15.79;87.08
69980;BME280;57318;56.232;43.944;2022-07-15T02:48:47;97383.94;;;15.78;87.22
69980;BME280;57318;56.232;43.944;2022-07-15T02:51:13;97381.28;;;15.78;87.26
69980;BME280;57318;56.232;43.944;2022-07-15T02:53:39;97374.25;;;15.77;87.35
69980;BME280;57318;56.232;43.944;2022-07-15T02:56:05;97372.41;;;15.78;87.46
69980;BME280;57318;56.232;43.944;2022-07-15T02:58:31;97377.75;;;15.78;87.69
69980;BME280;57318;56.232;43.944;2022-07-15T03:00:59;97374.06;;;15.79;87.64
69980;BME280;57318;56.232;43.944;2022-07-15T03:03:25;97374.25;;;15.77;87.81
69980;BME280;57318;56.232;43.944;2022-07-15T03:05:57;97377.94;;;15.76;87.79
69980;BME280;57318;56.232;43.944;2022-07-15T03:08:23;97370.78;;;15.77;87.98
69980;BME280;57318;56.232;43.944;2022-07-15T03:10:48;97368.91;;;15.77;88.37
69980;BME280;57318;56.232;43.944;2022-07-15T03:13:14;97376.75;;;15.79;88.53
69980;BME280;57318;56.232;43.944;2022-07-15T03:15:40;97370.13;;;15.81;88.46
69980;BME280;57318;56.232;43.944;2022-07-15T03:18:05;97376.31;;;15.82;88.72
69980;BME280;57318;56.232;43.944;2022-07-15T03:20:31;97366.00;;;15.85;88.51
69980;BME280;57318;56.232;43.944;2022-07-15T03:22:58;97374.66;;;15.87;88.58
69980;BME280;57318;56.232;43.944;2022-07-15T03:25:24;97369.28;;;15.87;88.33
69980;BME280;57318;56.232;43.944;2022-07-15T03:27:49;97366.19;;;15.91;88.43
69980;BME280;57318;56.232;43.944;2022-07-15T03:30:15;97369.31;;;15.94;88.50
69980;BME280;57318;56.232;43.944;2022-07-15T03:32:41;97376.28;;;15.95;88.05
69980;BME280;57318;56.232;43.944;2022-07-15T03:35:07;97380.84;;;15.95;87.94
69980;BME280;57318;56.232;43.944;2022-07-15T03:37:33;97376.09;;;15.97;88.27
69980;BME280;57318;56.232;43.944;2022-07-15T03:39:59;97376.09;;;15.97;88.41
69980;BME280;57318;56.232;43.944;2022-07-15T03:42:25;97375.47;;;15.95;88.41
69980;BME280;57318;56.232;43.944;2022-07-15T03:44:50;97375.47;;;15.95;88.48
69980;BME280;57318;56.232;43.944;2022-07-15T03:47:16;97376.94;;;15.97;88.57
69980;BME280;57318;56.232;43.944;2022-07-15T03:49:42;97375.66;;;16.00;88.72
69980;BME280;57318;56.232;43.944;2022-07-15T03:52:08;97387.03;;;16.02;88.87
69980;BME280;57318;56.232;43.944;2022-07-15T03:54:34;97381.25;;;16.05;88.87
69980;BME280;57318;56.232;43.944;2022-07-15T03:56:59;97380.81;;;16.08;89.02
69980;BME280;57318;56.232;43.944;2022-07-15T03:59:25;97376.09;;;16.10;89.02
69980;BME280;57318;56.232;43.944;2022-07-15T04:01:51;97380.59;;;16.10;88.79
69980;BME280;57318;56.232;43.944;2022-07-15T04:04:17;97379.56;;;16.11;89.02
69980;BME280;57318;56.232;43.944;2022-07-15T04:06:43;97369.66;;;16.11;89.22
69980;BME280;57318;56.232;43.944;2022-07-15T04:09:09;97367.00;;;16.11;89.36
69980;BME280;57318;56.232;43.944;2022-07-15T04:11:35;97368.03;;;16.10;89.30
69980;BME280;57318;56.232;43.944;2022-07-15T04:14:01;97368.84;;;16.11;89.31
69980;BME280;57318;56.232;43.944;2022-07-15T04:16:27;97356.91;;;16.13;89.42
69980;BME280;57318;56.232;43.944;2022-07-15T04:18:54;97363.09;;;16.14;89.34
69980;BME280;57318;56.232;43.944;2022-07-15T04:21:19;97374.63;;;16.14;89.51
69980;BME280;57318;56.232;43.944;2022-07-15T04:23:45;97356.69;;;16.15;89.66
69980;BME280;57318;56.232;43.944;2022-07-15T04:26:11;97354.03;;;16.15;89.72
69980;BME280;57318;56.232;43.944;2022-07-15T04:28:37;97349.47;;;16.15;89.96
69980;BME280;57318;56.232;43.944;2022-07-15T04:31:02;97348.03;;;16.19;89.92
69980;BME280;57318;56.232;43.944;2022-07-15T04:33:28;97364.31;;;16.18;89.76
69980;BME280;57318;56.232;43.944;2022-07-15T04:35:53;97340.00;;;16.19;89.65
69980;BME280;57318;56.232;43.944;2022-07-15T04:38:20;97345.16;;;16.21;89.97
69980;BME280;57318;56.232;43.944;2022-07-15T04:40:46;97348.63;;;16.21;90.16
69980;BME280;57318;56.232;43.944;2022-07-15T04:43:11;97334.63;;;16.19;90.32
69980;BME280;57318;56.232;43.944;2022-07-15T04:45:37;97344.50;;;16.19;90.59
69980;BME280;57318;56.232;43.944;2022-07-15T04:48:03;97332.16;;;16.18;90.42
69980;BME280;57318;56.232;43.944;2022-07-15T04:50:49;97324.94;;;16.18;90.70
69980;BME280;57318;56.232;43.944;2022-07-15T04:53:17;97331.13;;;16.19;90.84
69980;BME280;57318;56.232;43.944;2022-07-15T04:55:44;97325.53;;;16.20;90.67
69980;BME280;57318;56.232;43.944;2022-07-15T04:58:10;97336.25;;;16.20;90.77
69980;BME280;57318;56.232;43.944;2022-07-15T05:00:36;97330.91;;;16.20;90.85
69980;BME280;57318;56.232;43.944;2022-07-15T05:03:01;97340.59;;;16.21;90.90
69980;BME280;57318;56.232;43.944;2022-07-15T05:05:29;97324.72;;;16.20;90.89
69980;BME280;57318;56.232;43.944;2022-07-15T05:07:55;97327.63;;;16.18;90.84
69980;BME280;57318;56.232;43.944;2022-07-15T05:10:21;97332.56;;;16.21;90.97
69980;BME280;57318;56.232;43.944;2022-07-15T05:12:46;97340.59;;;16.21;91.03
69980;BME280;57318;56.232;43.944;2022-07-15T05:15:12;97354.00;;;16.21;90.98
69980;BME280;57318;56.232;43.944;2022-07-15T05:17:39;97336.69;;;16.24;91.14
69980;BME280;57318;56.232;43.944;2022-07-15T05:20:05;97343.47;;;16.27;91.13
69980;BME280;57318;56.232;43.944;2022-07-15T05:22:30;97349.47;;;16.29;91.26
69980;BME280;57318;56.232;43.944;2022-07-15T05:24:56;97351.94;;;16.30;90.92
69980;BME280;57318;56.232;43.944;2022-07-15T05:27:22;97343.69;;;16.32;91.18
69980;BME280;57318;56.232;43.944;2022-07-15T05:29:47;97351.50;;;16.33;90.97
69980;BME280;57318;56.232;43.944;2022-07-15T05:32:13;97350.66;;;16.33;90.94
69980;BME280;57318;56.232;43.944;2022-07-15T05:34:39;97353.53;;;16.38;90.81
69980;BME280;57318;56.232;43.944;2022-07-15T05:37:04;97356.19;;;16.38;90.87
69980;BME280;57318;56.232;43.944;2022-07-15T05:39:30;97348.78;;;16.40;90.97
69980;BME280;57318;56.232;43.944;2022-07-15T05:41:55;97356.41;;;16.43;90.93
69980;BME280;57318;56.232;43.944;2022-07-15T05:44:22;97366.09;;;16.44;90.72
69980;BME280;57318;56.232;43.944;2022-07-15T05:46:47;97356.19;;;16.45;90.68
69980;BME280;57318;56.232;43.944;2022-07-15T05:49:13;97358.69;;;16.46;90.53
69980;BME280;57318;56.232;43.944;2022-07-15T05:51:39;97361.97;;;16.48;90.62
69980;BME280;57318;56.232;43.944;2022-07-15T05:54:05;97359.25;;;16.55;90.42
69980;BME280;57318;56.232;43.944;2022-07-15T05:56:31;97356.34;;;16.56;90.24
69980;BME280;57318;56.232;43.944;2022-07-15T05:58:57;97366.06;;;16.57;90.30
69980;BME280;57318;56.232;43.944;2022-07-15T06:01:22;97369.97;;;16.55;90.27
69980;BME280;57318;56.232;43.944;2022-07-15T06:03:49;97363.78;;;16.54;90.21
69980;BME280;57318;56.232;43.944;2022-07-15T06:06:14;97370.59;;;16.57;90.17
69980;BME280;57318;56.232;43.944;2022-07-15T06:08:41;97373.66;;;16.60;90.17
69980;BME280;57318;56.232;43.944;2022-07-15T06:11:07;97385.81;;;16.63;90.37
69980;BME280;57318;56.232;43.944;2022-07-15T06:13:34;97383.13;;;16.63;90.36
69980;BME280;57318;56.232;43.944;2022-07-15T06:15:59;97386.44;;;16.65;90.48
69980;BME280;57318;56.232;43.944;2022-07-15T06:18:25;97386.84;;;16.69;90.71
69980;BME280;57318;56.232;43.944;2022-07-15T06:20:52;97391.59;;;16.67;90.73
69980;BME280;57318;56.232;43.944;2022-07-15T06:23:17;97395.91;;;16.68;90.84
69980;BME280;57318;56.232;43.944;2022-07-15T06:25:43;97393.84;;;16.70;90.98
69980;BME280;57318;56.232;43.944;2022-07-15T06:28:10;97411.19;;;16.67;90.86
69980;BME280;57318;56.232;43.944;2022-07-15T06:30:35;97416.16;;;16.64;90.88
69980;BME280;57318;56.232;43.944;2022-07-15T06:33:01;97410.78;;;16.64;91.04
69980;BME280;57318;56.232;43.944;2022-07-15T06:35:27;97427.47;;;16.66;91.26
69980;BME280;57318;56.232;43.944;2022-07-15T06:37:53;97427.47;;;16.66;91.56
69980;BME280;57318;56.232;43.944;2022-07-15T06:40:18;97433.22;;;16.69;91.49
69980;BME280;57318;56.232;43.944;2022-07-15T06:42:44;97447.47;;;16.63;91.45
69980;BME280;57318;56.232;43.944;2022-07-15T06:45:10;97449.34;;;16.63;91.29
69980;BME280;57318;56.232;43.944;2022-07-15T06:47:38;97452.00;;;16.69;91.31
69980;BME280;57318;56.232;43.944;2022-07-15T06:50:04;97470.78;;;16.76;91.23
69980;BME280;57318;56.232;43.944;2022-07-15T06:52:30;97469.50;;;16.78;91.03
69980;BME280;57318;56.232;43.944;2022-07-15T06:54:56;97482.13;;;16.78;91.09
69980;BME280;57318;56.232;43.944;2022-07-15T06:57:22;97486.88;;;16.76;90.68
69980;BME280;57318;56.232;43.944;2022-07-15T06:59:47;97488.28;;;16.78;90.32
69980;BME280;57318;56.232;43.944;2022-07-15T07:02:13;97500.47;;;16.81;90.20
69980;BME280;57318;56.232;43.944;2022-07-15T07:04:39;97508.50;;;16.81;90.18
69980;BME280;57318;56.232;43.944;2022-07-15T07:07:05;97513.88;;;16.81;89.84
69980;BME280;57318;56.232;43.944;2022-07-15T07:09:31;97508.94;;;16.78;89.69
69980;BME280;57318;56.232;43.944;2022-07-15T07:11:56;97531.19;;;16.78;89.79
69980;BME280;57318;56.232;43.944;2022-07-15T07:14:23;97529.56;;;16.71;89.34
69980;BME280;57318;56.232;43.944;2022-07-15T07:16:48;97539.69;;;16.69;89.35
69980;BME280;57318;56.232;43.944;2022-07-15T07:19:14;97541.94;;;16.72;89.33
69980;BME280;57318;56.232;43.944;2022-07-15T07:21:40;97555.97;;;16.74;89.52
69980;BME280;57318;56.232;43.944;2022-07-15T07:24:05;97560.72;;;16.72;89.62
69980;BME280;57318;56.232;43.944;2022-07-15T07:26:33;97583.22;;;16.77;89.61
69980;BME280;57318;56.232;43.944;2022-07-15T07:28:59;97577.03;;;16.90;89.66
69980;BME280;57318;56.232;43.944;2022-07-15T07:31:25;97578.84;;;17.03;89.59
69980;BME280;57318;56.232;43.944;2022-07-15T07:33:55;97568.72;;;17.12;88.54
69980;BME280;57318;56.232;43.944;2022-07-15T07:36:22;97586.88;;;17.23;87.56
69980;BME280;57318;56.232;43.944;2022-07-15T07:38:47;97609.13;;;17.30;87.92
69980;BME280;57318;56.232;43.944;2022-07-15T07:41:13;97618.03;;;17.31;87.10
69980;BME280;57318;56.232;43.944;2022-07-15T07:43:39;97608.69;;;17.40;86.62
69980;BME280;57318;56.232;43.944;2022-07-15T07:46:05;97613.22;;;17.40;86.54
69980;BME280;57318;56.232;43.944;2022-07-15T07:48:31;97618.38;;;17.41;86.23
69980;BME280;57318;56.232;43.944;2022-07-15T07:50:57;97628.34;;;17.34;86.23
69980;BME280;57318;56.232;43.944;2022-07-15T07:53:23;97622.13;;;17.34;86.25
69980;BME280;57318;56.232;43.944;2022-07-15T07:55:50;97622.53;;;17.37;86.28
69980;BME280;57318;56.232;43.944;2022-07-15T07:58:16;97631.41;;;17.38;86.04
69980;BME280;57318;56.232;43.944;2022-07-15T08:00:43;97640.31;;;17.31;86.27
69980;BME280;57318;56.232;43.944;2022-07-15T08:03:09;97649.38;;;17.30;86.39
69980;BME280;57318;56.232;43.944;2022-07-15T08:05:35;97645.50;;;17.26;86.52
69980;BME280;57318;56.232;43.944;2022-07-15T08:08:16;97653.34;;;17.28;85.89
69980;BME280;57318;56.232;43.944;2022-07-15T08:10:44;97663.44;;;17.26;86.19
69980;BME280;57318;56.232;43.944;2022-07-15T08:13:10;97670.66;;;17.25;86.65
69980;BME280;57318;56.232;43.944;2022-07-15T08:15:38;97659.94;;;17.25;86.10
69980;BME280;57318;56.232;43.944;2022-07-15T08:18:04;97663.44;;;17.26;85.71
69980;BME280;57318;56.232;43.944;2022-07-15T08:20:30;97660.53;;;17.27;85.79
69980;BME280;57318;56.232;43.944;2022-07-15T08:22:57;97668.38;;;17.29;86.08
69980;BME280;57318;56.232;43.944;2022-07-15T08:25:32;97682.63;;;17.23;86.32
69980;BME280;57318;56.232;43.944;2022-07-15T08:27:59;97679.34;;;17.21;86.90
69980;BME280;57318;56.232;43.944;2022-07-15T08:30:28;97667.19;;;17.18;87.48
69980;BME280;57318;56.232;43.944;2022-07-15T08:32:55;97658.50;;;17.16;87.86
69980;BME280;57318;56.232;43.944;2022-07-15T08:35:23;97671.50;;;17.19;88.10
69980;BME280;57318;56.232;43.944;2022-07-15T08:37:49;97663.84;;;17.23;88.06
69980;BME280;57318;56.232;43.944;2022-07-15T08:40:15;97684.94;;;17.19;87.75
69980;BME280;57318;56.232;43.944;2022-07-15T08:42:41;97676.88;;;17.19;87.59
69980;BME280;57318;56.232;43.944;2022-07-15T08:45:10;97680.63;;;17.18;87.81
69980;BME280;57318;56.232;43.944;2022-07-15T08:47:38;97693.38;;;17.23;87.98
69980;BME280;57318;56.232;43.944;2022-07-15T08:50:04;97698.56;;;17.18;88.48
69980;BME280;57318;56.232;43.944;2022-07-15T08:52:32;97705.97;;;17.22;88.63
69980;BME280;57318;56.232;43.944;2022-07-15T08:54:58;97715.06;;;17.21;89.02
69980;BME280;57318;56.232;43.944;2022-07-15T08:57:24;97718.56;;;17.28;88.68
69980;BME280;57318;56.232;43.944;2022-07-15T08:59:53;97722.69;;;17.38;88.50
69980;BME280;57318;56.232;43.944;2022-07-15T09:02:19;97741.06;;;17.41;88.65
69980;BME280;57318;56.232;43.944;2022-07-15T09:05:21;97738.59;;;17.39;88.03
69980;BME280;57318;56.232;43.944;2022-07-15T09:13:33;97767.69;;;17.49;88.34
69980;BME280;57318;56.232;43.944;2022-07-15T09:16:18;97781.31;;;17.54;88.70
69980;BME280;57318;56.232;43.944;2022-07-15T09:18:49;97788.97;;;17.91;88.15
69980;BME280;57318;56.232;43.944;2022-07-15T09:21:17;97790.84;;;18.35;87.52
69980;BME280;57318;56.232;43.944;2022-07-15T09:23:44;97797.09;;;18.74;86.58
69980;BME280;57318;56.232;43.944;2022-07-15T09:26:24;97797.59;;;18.97;85.14
69980;BME280;57318;56.232;43.944;2022-07-15T09:28:52;97800.88;;;19.05;83.93
69980;BME280;57318;56.232;43.944;2022-07-15T09:31:34;97814.28;;;19.12;83.13
69980;BME280;57318;56.232;43.944;2022-07-15T09:34:19;97814.06;;;19.14;82.38
69980;BME280;57318;56.232;43.944;2022-07-15T09:36:47;97817.72;;;19.19;83.52
69980;BME280;57318;56.232;43.944;2022-07-15T09:39:16;97821.50;;;19.43;83.12
69980;BME280;57318;56.232;43.944;2022-07-15T09:41:43;97826.09;;;19.87;80.62
69980;BME280;57318;56.232;43.944;2022-07-15T09:46:53;97839.63;;;21.75;77.62
69980;BME280;57318;56.232;43.944;2022-07-15T09:51:57;97846.81;;;23.90;65.05
69980;BME280;57318;56.232;43.944;2022-07-15T09:54:35;97848.75;;;26.35;62.65
69980;BME280;57318;56.232;43.944;2022-07-15T09:57:04;97855.00;;;28.63;57.74
69980;BME280;57318;56.232;43.944;2022-07-15T09:59:30;97851.50;;;30.16;54.20
69980;BME280;57318;56.232;43.944;2022-07-15T10:01:56;97853.28;;;31.74;49.46
69980;BME280;57318;56.232;43.944;2022-07-15T10:04:25;97864.66;;;33.12;48.10
69980;BME280;57318;56.232;43.944;2022-07-15T10:06:53;97865.09;;;33.19;41.61
69980;BME280;57318;56.232;43.944;2022-07-15T10:09:24;97856.34;;;32.47;43.69
69980;BME280;57318;56.232;43.944;2022-07-15T10:11:59;97869.09;;;31.63;41.84
69980;BME280;57318;56.232;43.944;2022-07-15T10:20:24;97881.09;;;32.00;37.80
69980;BME280;57318;56.232;43.944;2022-07-15T10:28:46;97902.94;;;33.72;38.61
69980;BME280;57318;56.232;43.944;2022-07-15T10:31:21;97914.56;;;33.69;37.72
69980;BME280;57318;56.232;43.944;2022-07-15T10:36:38;97927.06;;;33.53;37.32
69980;BME280;57318;56.232;43.944;2022-07-15T10:39:05;97923.19;;;32.89;41.41
69980;BME280;57318;56.232;43.944;2022-07-15T10:41:53;97936.63;;;33.55;34.01
69980;BME280;57318;56.232;43.944;2022-07-15T10:44:20;97936.88;;;34.27;38.75
69980;BME280;57318;56.232;43.944;2022-07-15T10:46:46;97941.69;;;35.68;31.42
69980;BME280;57318;56.232;43.944;2022-07-15T10:49:28;97954.84;;;36.32;28.95
69980;BME280;57318;56.232;43.944;2022-07-15T10:51:54;97953.84;;;37.44;31.73
69980;BME280;57318;56.232;43.944;2022-07-15T10:56:48;97965.47;;;36.60;33.25
69980;BME280;57318;56.232;43.944;2022-07-15T10:59:23;97948.31;;;37.44;31.83
69980;BME280;57318;56.232;43.944;2022-07-15T11:02:11;97963.47;;;37.88;32.58
69980;BME280;57318;56.232;43.944;2022-07-15T11:04:35;97959.09;;;38.21;31.03
69980;BME280;57318;56.232;43.944;2022-07-15T11:14:57;97981.25;;;40.63;28.34
69980;BME280;57318;56.232;43.944;2022-07-15T11:19:58;97973.88;;;41.18;28.23
69980;BME280;57318;56.232;43.944;2022-07-15T11:22:26;97978.72;;;40.57;29.21
69980;BME280;57318;56.232;43.944;2022-07-15T11:24:53;97973.81;;;39.04;32.11
69980;BME280;57318;56.232;43.944;2022-07-15T11:27:23;97978.69;;;39.85;29.24
69980;BME280;57318;56.232;43.944;2022-07-15T11:29:57;97971.63;;;40.76;27.50
69980;BME280;57318;56.232;43.944;2022-07-15T11:32:33;97985.72;;;41.31;25.08
69980;BME280;57318;56.232;43.944;2022-07-15T11:35:02;97985.84;;;41.54;26.04
69980;BME280;57318;56.232;43.944;2022-07-15T11:37:31;97984.69;;;39.46;28.85
69980;BME280;57318;56.232;43.944;2022-07-15T11:40:16;97971.78;;;37.67;26.94
69980;BME280;57318;56.232;43.944;2022-07-15T11:43:02;97984.66;;;36.74;31.97
69980;BME280;57318;56.232;43.944;2022-07-15T11:45:47;97981.19;;;35.42;34.98
69980;BME280;57318;56.232;43.944;2022-07-15T11:48:13;97977.09;;;34.05;36.17
69980;BME280;57318;56.232;43.944;2022-07-15T11:50:55;97987.84;;;36.46;31.22
69980;BME280;57318;56.232;43.944;2022-07-15T11:53:21;98000.50;;;36.56;31.68
69980;BME280;57318;56.232;43.944;2022-07-15T11:55:49;97992.06;;;37.59;28.68
69980;BME280;57318;56.232;43.944;2022-07-15T11:58:15;98001.69;;;38.37;25.63
69980;BME280;57318;56.232;43.944;2022-07-15T12:00:47;98001.94;;;38.90;23.26
69980;BME280;57318;56.232;43.944;2022-07-15T12:03:13;98017.69;;;39.11;23.17
69980;BME280;57318;56.232;43.944;2022-07-15T12:05:39;98007.59;;;38.69;22.59
69980;BME280;57318;56.232;43.944;2022-07-15T12:08:04;98009.88;;;38.34;23.27
69980;BME280;57318;56.232;43.944;2022-07-15T12:10:35;98004.41;;;35.41;26.69
69980;BME280;57318;56.232;43.944;2022-07-15T12:13:01;98008.47;;;34.63;28.34
69980;BME280;57318;56.232;43.944;2022-07-15T12:15:33;98016.81;;;36.05;26.59
69980;BME280;57318;56.232;43.944;2022-07-15T12:17:59;98001.16;;;34.67;27.81
69980;BME280;57318;56.232;43.944;2022-07-15T12:20:25;98015.34;;;34.75;26.50
69980;BME280;57318;56.232;43.944;2022-07-15T12:23:02;98000.97;;;35.53;25.23
69980;BME280;57318;56.232;43.944;2022-07-15T12:25:28;98023.66;;;36.25;23.89
69980;BME280;57318;56.232;43.944;2022-07-15T12:27:53;98014.84;;;34.05;27.31
69980;BME280;57318;56.232;43.944;2022-07-15T12:30:30;98017.13;;;33.52;28.57
69980;BME280;57318;56.232;43.944;2022-07-15T12:33:19;98027.78;;;34.72;27.04
69980;BME280;57318;56.232;43.944;2022-07-15T12:35:45;98035.28;;;35.60;26.11
69980;BME280;57318;56.232;43.944;2022-07-15T12:38:25;98053.28;;;35.00;26.38
69980;BME280;57318;56.232;43.944;2022-07-15T12:40:51;98045.91;;;36.11;25.36
69980;BME280;57318;56.232;43.944;2022-07-15T12:43:17;98041.03;;;36.34;25.38
69980;BME280;57318;56.232;43.944;2022-07-15T12:45:43;98055.34;;;37.10;24.26
69980;BME280;57318;56.232;43.944;2022-07-15T12:48:10;98057.22;;;37.65;23.20
69980;BME280;57318;56.232;43.944;2022-07-15T12:53:21;98049.16;;;36.57;23.18
69980;BME280;57318;56.232;43.944;2022-07-15T12:55:49;98036.84;;;34.19;26.47
69980;BME280;57318;56.232;43.944;2022-07-15T12:58:24;98045.22;;;32.14;29.64
69980;BME280;57318;56.232;43.944;2022-07-15T13:00:50;98040.06;;;31.02;31.06
69980;BME280;57318;56.232;43.944;2022-07-15T13:03:21;98048.72;;;31.33;31.23
69980;BME280;57318;56.232;43.944;2022-07-15T13:05:50;98040.22;;;30.17;33.66
69980;BME280;57318;56.232;43.944;2022-07-15T13:10:50;98070.94;;;31.80;31.37
69980;BME280;57318;56.232;43.944;2022-07-15T13:13:18;98059.91;;;30.59;32.68
69980;BME280;57318;56.232;43.944;2022-07-15T13:15:45;98056.63;;;30.57;32.94
69980;BME280;57318;56.232;43.944;2022-07-15T13:18:11;98059.53;;;29.97;34.37
69980;BME280;57318;56.232;43.944;2022-07-15T13:20:37;98066.75;;;29.82;35.13
69980;BME280;57318;56.232;43.944;2022-07-15T13:23:03;98068.47;;;31.35;32.86
69980;BME280;57318;56.232;43.944;2022-07-15T13:25:29;98071.44;;;32.91;30.82
69980;BME280;57318;56.232;43.944;2022-07-15T13:27:55;98085.75;;;34.13;28.95
69980;BME280;57318;56.232;43.944;2022-07-15T13:30:23;98073.69;;;34.23;26.52
69980;BME280;57318;56.232;43.944;2022-07-15T13:32:48;98084.06;;;34.03;26.43
69980;BME280;57318;56.232;43.944;2022-07-15T13:35:15;98080.97;;;34.05;26.75
69980;BME280;57318;56.232;43.944;2022-07-15T13:37:41;98091.78;;;34.15;27.20
69980;BME280;57318;56.232;43.944;2022-07-15T13:40:09;98082.50;;;34.11;27.90